sensor_id;sensor_type;location;lat;lon;timestamp;P1;durP1;ratioP1;P2;durP2;ratioP2
27586;SDS011;15019;49.002;8.420;2022-07-10T00:00:38;5.78;;;4.43;;
27586;SDS011;15019;49.002;8.420;2022-07-10T00:03:04;7.20;;;4.50;;
27586;SDS011;15019;49.002;8.420;2022-07-10T00:05:30;6.75;;;4.38;;
27586;SDS011;15019;49.002;8.420;2022-07-10T00:07:57;7.82;;;4.68;;
27586;SDS011;15019;49.002;8.420;2022-07-10T00:10:23;6.85;;;4.88;;
27586;SDS011;15019;49.002;8.420;2022-07-10T00:12:48;6.55;;;5.10;;
27586;SDS011;15019;49.002;8.420;2022-07-10T00:15:15;5.40;;;4.18;;
27586;SDS011;15019;49.002;8.420;2022-07-10T00:17:41;7.43;;;4.57;;
27586;SDS011;15019;49.002;8.420;2022-07-10T00:20:08;7.35;;;4.40;;
27586;SDS011;15019;49.002;8.420;2022-07-10T00:22:34;9.57;;;4.72;;
27586;SDS011;15019;49.002;8.420;2022-07-10T00:25:01;9.32;;;5.13;;
27586;SDS011;15019;49.002;8.420;2022-07-10T00:27:27;5.47;;;4.57;;
27586;SDS011;15019;49.002;8.420;2022-07-10T00:29:52;5.22;;;4.68;;
27586;SDS011;15019;49.002;8.420;2022-07-10T00:32:18;6.80;;;4.97;;
27586;SDS011;15019;49.002;8.420;2022-07-10T00:34:43;7.65;;;4.50;;
27586;SDS011;15019;49.002;8.420;2022-07-10T00:37:08;6.97;;;5.00;;
27586;SDS011;15019;49.002;8.420;2022-07-10T00:39:34;7.05;;;4.20;;
27586;SDS011;15019;49.002;8.420;2022-07-10T00:42:09;6.30;;;4.60;;
27586;SDS011;15019;49.002;8.420;2022-07-10T00:44:39;7.65;;;5.05;;
27586;SDS011;15019;49.002;8.420;2022-07-10T00:47:05;5.07;;;4.57;;
27586;SDS011;15019;49.002;8.420;2022-07-10T00:49:33;7.15;;;5.25;;
27586;SDS011;15019;49.002;8.420;2022-07-10T00:54:28;5.80;;;5.00;;
27586;SDS011;15019;49.002;8.420;2022-07-10T00:56:54;9.00;;;5.32;;
27586;SDS011;15019;49.002;8.420;2022-07-10T00:59:20;7.10;;;5.53;;
27586;SDS011;15019;49.002;8.420;2022-07-10T01:01:47;8.17;;;5.27;;
27586;SDS011;15019;49.002;8.420;2022-07-10T01:04:14;7.70;;;4.82;;
27586;SDS011;15019;49.002;8.420;2022-07-10T01:06:39;9.02;;;5.20;;
27586;SDS011;15019;49.002;8.420;2022-07-10T01:09:05;6.50;;;4.97;;
27586;SDS011;15019;49.002;8.420;2022-07-10T01:11:31;6.15;;;4.63;;
27586;SDS011;15019;49.002;8.420;2022-07-10T01:13:58;6.70;;;5.03;;
27586;SDS011;15019;49.002;8.420;2022-07-10T01:16:24;8.23;;;4.40;;
27586;SDS011;15019;49.002;8.420;2022-07-10T01:18:50;5.28;;;4.43;;
27586;SDS011;15019;49.002;8.420;2022-07-10T01:21:28;6.07;;;3.97;;
27586;SDS011;15019;49.002;8.420;2022-07-10T01:23:55;6.22;;;4.43;;
27586;SDS011;15019;49.002;8.420;2022-07-10T01:26:20;4.97;;;4.00;;
27586;SDS011;15019;49.002;8.420;2022-07-10T01:28:53;6.32;;;4.38;;
27586;SDS011;15019;49.002;8.420;2022-07-10T01:31:20;5.75;;;3.70;;
27586;SDS011;15019;49.002;8.420;2022-07-10T01:33:49;7.78;;;4.07;;
27586;SDS011;15019;49.002;8.420;2022-07-10T01:36:15;6.85;;;3.97;;
27586;SDS011;15019;49.002;8.420;2022-07-10T01:38:41;6.30;;;3.50;;
27586;SDS011;15019;49.002;8.420;2022-07-10T01:41:06;6.82;;;3.33;;
27586;SDS011;15019;49.002;8.420;2022-07-10T01:43:32;6.32;;;3.60;;
27586;SDS011;15019;49.002;8.420;2022-07-10T01:45:57;6.70;;;3.20;;
27586;SDS011;15019;49.002;8.420;2022-07-10T01:48:22;6.53;;;3.28;;
27586;SDS011;15019;49.002;8.420;2022-07-10T01:50:48;5.13;;;3.50;;
27586;SDS011;15019;49.002;8.420;2022-07-10T01:53:13;5.13;;;3.13;;
27586;SDS011;15019;49.002;8.420;2022-07-10T01:55:38;6.70;;;3.28;;
27586;SDS011;15019;49.002;8.420;2022-07-10T01:58:04;4.65;;;3.30;;
27586;SDS011;15019;49.002;8.420;2022-07-10T02:00:29;5.85;;;3.20;;
27586;SDS011;15019;49.002;8.420;2022-07-10T02:02:54;4.85;;;3.10;;
27586;SDS011;15019;49.002;8.420;2022-07-10T02:05:20;5.22;;;2.90;;
27586;SDS011;15019;49.002;8.420;2022-07-10T02:07:45;4.65;;;3.03;;
27586;SDS011;15019;49.002;8.420;2022-07-10T02:10:10;5.30;;;2.90;;
27586;SDS011;15019;49.002;8.420;2022-07-10T02:12:36;7.80;;;3.03;;
27586;SDS011;15019;49.002;8.420;2022-07-10T02:15:01;6.25;;;3.20;;
27586;SDS011;15019;49.002;8.420;2022-07-10T02:17:26;7.07;;;3.03;;
27586;SDS011;15019;49.002;8.420;2022-07-10T02:19:52;5.93;;;2.72;;
27586;SDS011;15019;49.002;8.420;2022-07-10T02:22:17;5.60;;;2.92;;
27586;SDS011;15019;49.002;8.420;2022-07-10T02:24:42;6.78;;;2.88;;
27586;SDS011;15019;49.002;8.420;2022-07-10T02:27:08;7.25;;;2.80;;
27586;SDS011;15019;49.002;8.420;2022-07-10T02:29:33;7.60;;;2.63;;
27586;SDS011;15019;49.002;8.420;2022-07-10T02:31:58;5.90;;;2.90;;
27586;SDS011;15019;49.002;8.420;2022-07-10T02:34:24;5.38;;;2.42;;
27586;SDS011;15019;49.002;8.420;2022-07-10T02:36:49;6.72;;;2.97;;
27586;SDS011;15019;49.002;8.420;2022-07-10T02:39:14;5.32;;;2.47;;
27586;SDS011;15019;49.002;8.420;2022-07-10T02:41:39;5.25;;;2.70;;
27586;SDS011;15019;49.002;8.420;2022-07-10T02:44:05;7.10;;;2.45;;
27586;SDS011;15019;49.002;8.420;2022-07-10T02:46:30;7.50;;;2.60;;
27586;SDS011;15019;49.002;8.420;2022-07-10T02:48:56;5.57;;;2.50;;
27586;SDS011;15019;49.002;8.420;2022-07-10T02:51:21;7.15;;;2.70;;
27586;SDS011;15019;49.002;8.420;2022-07-10T02:53:46;5.25;;;2.17;;
27586;SDS011;15019;49.002;8.420;2022-07-10T02:56:11;9.02;;;2.63;;
27586;SDS011;15019;49.002;8.420;2022-07-10T02:58:37;5.80;;;2.63;;
27586;SDS011;15019;49.002;8.420;2022-07-10T03:01:03;5.90;;;2.28;;
27586;SDS011;15019;49.002;8.420;2022-07-10T03:03:28;6.28;;;2.40;;
27586;SDS011;15019;49.002;8.420;2022-07-10T03:05:54;4.05;;;2.00;;
27586;SDS011;15019;49.002;8.420;2022-07-10T03:08:19;6.13;;;2.40;;
27586;SDS011;15019;49.002;8.420;2022-07-10T03:10:44;6.40;;;2.53;;
27586;SDS011;15019;49.002;8.420;2022-07-10T03:13:10;5.53;;;2.30;;
27586;SDS011;15019;49.002;8.420;2022-07-10T03:15:35;7.45;;;2.30;;
27586;SDS011;15019;49.002;8.420;2022-07-10T03:18:00;6.13;;;2.00;;
27586;SDS011;15019;49.002;8.420;2022-07-10T03:20:26;9.48;;;2.70;;
27586;SDS011;15019;49.002;8.420;2022-07-10T03:22:51;6.18;;;1.95;;
27586;SDS011;15019;49.002;8.420;2022-07-10T03:25:16;6.95;;;2.50;;
27586;SDS011;15019;49.002;8.420;2022-07-10T03:27:42;5.43;;;2.30;;
27586;SDS011;15019;49.002;8.420;2022-07-10T03:30:07;5.75;;;2.40;;
27586;SDS011;15019;49.002;8.420;2022-07-10T03:32:33;5.57;;;2.40;;
27586;SDS011;15019;49.002;8.420;2022-07-10T03:34:59;11.93;;;2.50;;
27586;SDS011;15019;49.002;8.420;2022-07-10T03:37:24;7.45;;;2.20;;
27586;SDS011;15019;49.002;8.420;2022-07-10T03:39:49;6.78;;;2.33;;
27586;SDS011;15019;49.002;8.420;2022-07-10T03:42:15;3.90;;;2.45;;
27586;SDS011;15019;49.002;8.420;2022-07-10T03:44:40;5.22;;;2.17;;
27586;SDS011;15019;49.002;8.420;2022-07-10T03:47:05;4.63;;;2.28;;
27586;SDS011;15019;49.002;8.420;2022-07-10T03:49:31;5.65;;;2.28;;
27586;SDS011;15019;49.002;8.420;2022-07-10T03:52:00;6.82;;;2.10;;
27586;SDS011;15019;49.002;8.420;2022-07-10T03:54:26;6.00;;;2.13;;
27586;SDS011;15019;49.002;8.420;2022-07-10T03:56:53;6.05;;;2.13;;
27586;SDS011;15019;49.002;8.420;2022-07-10T03:59:18;5.95;;;2.40;;
27586;SDS011;15019;49.002;8.420;2022-07-10T04:01:43;10.07;;;2.53;;
27586;SDS011;15019;49.002;8.420;2022-07-10T04:04:08;8.60;;;2.22;;
27586;SDS011;15019;49.002;8.420;2022-07-10T04:06:34;9.10;;;2.50;;
27586;SDS011;15019;49.002;8.420;2022-07-10T04:08:59;6.28;;;2.80;;
27586;SDS011;15019;49.002;8.420;2022-07-10T04:11:24;3.55;;;1.83;;
27586;SDS011;15019;49.002;8.420;2022-07-10T04:13:50;6.43;;;2.13;;
27586;SDS011;15019;49.002;8.420;2022-07-10T04:16:15;6.85;;;2.20;;
27586;SDS011;15019;49.002;8.420;2022-07-10T04:18:40;6.05;;;2.28;;
27586;SDS011;15019;49.002;8.420;2022-07-10T04:21:06;7.45;;;2.50;;
27586;SDS011;15019;49.002;8.420;2022-07-10T04:23:32;6.50;;;2.05;;
27586;SDS011;15019;49.002;8.420;2022-07-10T04:25:58;4.95;;;2.00;;
27586;SDS011;15019;49.002;8.420;2022-07-10T04:28:23;4.72;;;2.10;;
27586;SDS011;15019;49.002;8.420;2022-07-10T04:30:49;8.15;;;2.40;;
27586;SDS011;15019;49.002;8.420;2022-07-10T04:33:14;5.70;;;1.85;;
27586;SDS011;15019;49.002;8.420;2022-07-10T04:35:40;4.75;;;2.10;;
27586;SDS011;15019;49.002;8.420;2022-07-10T04:38:05;5.60;;;2.13;;
27586;SDS011;15019;49.002;8.420;2022-07-10T04:40:31;8.82;;;2.22;;
27586;SDS011;15019;49.002;8.420;2022-07-10T04:42:56;6.95;;;2.20;;
27586;SDS011;15019;49.002;8.420;2022-07-10T04:45:21;6.15;;;1.73;;
27586;SDS011;15019;49.002;8.420;2022-07-10T04:47:47;4.72;;;2.00;;
27586;SDS011;15019;49.002;8.420;2022-07-10T04:50:12;7.90;;;2.00;;
27586;SDS011;15019;49.002;8.420;2022-07-10T04:52:37;4.28;;;2.03;;
27586;SDS011;15019;49.002;8.420;2022-07-10T04:55:02;4.20;;;1.88;;
27586;SDS011;15019;49.002;8.420;2022-07-10T04:57:29;6.95;;;2.00;;
27586;SDS011;15019;49.002;8.420;2022-07-10T04:59:55;6.15;;;2.30;;
27586;SDS011;15019;49.002;8.420;2022-07-10T05:02:20;7.03;;;2.00;;
27586;SDS011;15019;49.002;8.420;2022-07-10T05:04:46;12.48;;;2.17;;
27586;SDS011;15019;49.002;8.420;2022-07-10T05:07:11;9.50;;;2.00;;
27586;SDS011;15019;49.002;8.420;2022-07-10T05:09:36;5.85;;;2.00;;
27586;SDS011;15019;49.002;8.420;2022-07-10T05:12:02;4.57;;;1.80;;
27586;SDS011;15019;49.002;8.420;2022-07-10T05:14:27;6.68;;;2.00;;
27586;SDS011;15019;49.002;8.420;2022-07-10T05:16:52;6.78;;;2.03;;
27586;SDS011;15019;49.002;8.420;2022-07-10T05:19:18;6.45;;;2.20;;
27586;SDS011;15019;49.002;8.420;2022-07-10T05:21:43;4.43;;;1.75;;
27586;SDS011;15019;49.002;8.420;2022-07-10T05:24:08;6.47;;;2.13;;
27586;SDS011;15019;49.002;8.420;2022-07-10T05:26:34;8.73;;;2.40;;
27586;SDS011;15019;49.002;8.420;2022-07-10T05:28:59;7.18;;;2.00;;
27586;SDS011;15019;49.002;8.420;2022-07-10T05:31:24;6.90;;;1.90;;
27586;SDS011;15019;49.002;8.420;2022-07-10T05:33:49;6.25;;;2.75;;
27586;SDS011;15019;49.002;8.420;2022-07-10T05:36:15;12.18;;;1.90;;
27586;SDS011;15019;49.002;8.420;2022-07-10T05:38:40;5.68;;;1.80;;
27586;SDS011;15019;49.002;8.420;2022-07-10T05:41:05;6.15;;;2.05;;
27586;SDS011;15019;49.002;8.420;2022-07-10T05:43:31;9.88;;;2.30;;
27586;SDS011;15019;49.002;8.420;2022-07-10T05:45:56;7.22;;;1.95;;
27586;SDS011;15019;49.002;8.420;2022-07-10T05:48:21;8.25;;;2.83;;
27586;SDS011;15019;49.002;8.420;2022-07-10T05:50:47;9.93;;;2.15;;
27586;SDS011;15019;49.002;8.420;2022-07-10T05:53:12;5.50;;;1.80;;
27586;SDS011;15019;49.002;8.420;2022-07-10T05:55:37;9.15;;;2.00;;
27586;SDS011;15019;49.002;8.420;2022-07-10T05:58:03;8.48;;;2.00;;
27586;SDS011;15019;49.002;8.420;2022-07-10T06:00:28;5.45;;;1.95;;
27586;SDS011;15019;49.002;8.420;2022-07-10T06:02:53;9.32;;;2.22;;
27586;SDS011;15019;49.002;8.420;2022-07-10T06:05:19;6.70;;;2.33;;
27586;SDS011;15019;49.002;8.420;2022-07-10T06:07:44;5.25;;;1.80;;
27586;SDS011;15019;49.002;8.420;2022-07-10T06:10:09;5.93;;;2.13;;
27586;SDS011;15019;49.002;8.420;2022-07-10T06:12:35;7.60;;;2.20;;
27586;SDS011;15019;49.002;8.420;2022-07-10T06:15:00;11.50;;;5.63;;
27586;SDS011;15019;49.002;8.420;2022-07-10T06:17:25;7.43;;;2.15;;
27586;SDS011;15019;49.002;8.420;2022-07-10T06:19:51;4.28;;;1.70;;
27586;SDS011;15019;49.002;8.420;2022-07-10T06:22:16;4.93;;;1.80;;
27586;SDS011;15019;49.002;8.420;2022-07-10T06:24:41;7.45;;;2.00;;
27586;SDS011;15019;49.002;8.420;2022-07-10T06:27:07;7.15;;;2.00;;
27586;SDS011;15019;49.002;8.420;2022-07-10T06:29:33;5.75;;;1.88;;
27586;SDS011;15019;49.002;8.420;2022-07-10T06:31:58;5.50;;;1.80;;
27586;SDS011;15019;49.002;8.420;2022-07-10T06:34:24;9.98;;;2.30;;
27586;SDS011;15019;49.002;8.420;2022-07-10T06:36:49;8.88;;;2.20;;
27586;SDS011;15019;49.002;8.420;2022-07-10T06:39:14;7.90;;;2.30;;
27586;SDS011;15019;49.002;8.420;2022-07-10T06:41:40;4.10;;;1.80;;
27586;SDS011;15019;49.002;8.420;2022-07-10T06:44:05;6.72;;;1.90;;
27586;SDS011;15019;49.002;8.420;2022-07-10T06:46:31;7.57;;;2.20;;
27586;SDS011;15019;49.002;8.420;2022-07-10T06:48:57;7.78;;;2.00;;
27586;SDS011;15019;49.002;8.420;2022-07-10T06:51:24;5.53;;;1.80;;
27586;SDS011;15019;49.002;8.420;2022-07-10T06:53:49;4.43;;;1.90;;
27586;SDS011;15019;49.002;8.420;2022-07-10T06:56:15;7.55;;;2.03;;
27586;SDS011;15019;49.002;8.420;2022-07-10T06:58:40;4.93;;;1.80;;
27586;SDS011;15019;49.002;8.420;2022-07-10T07:01:06;5.72;;;2.15;;
27586;SDS011;15019;49.002;8.420;2022-07-10T07:03:31;6.45;;;1.90;;
27586;SDS011;15019;49.002;8.420;2022-07-10T07:05:56;8.73;;;2.28;;
27586;SDS011;15019;49.002;8.420;2022-07-10T07:08:22;8.90;;;1.95;;
27586;SDS011;15019;49.002;8.420;2022-07-10T07:10:47;4.72;;;1.75;;
27586;SDS011;15019;49.002;8.420;2022-07-10T07:13:12;5.78;;;1.90;;
27586;SDS011;15019;49.002;8.420;2022-07-10T07:15:38;6.22;;;1.90;;
27586;SDS011;15019;49.002;8.420;2022-07-10T07:18:03;9.13;;;2.00;;
27586;SDS011;15019;49.002;8.420;2022-07-10T07:20:28;4.60;;;1.75;;
27586;SDS011;15019;49.002;8.420;2022-07-10T07:22:54;11.07;;;1.80;;
27586;SDS011;15019;49.002;8.420;2022-07-10T07:25:19;3.97;;;1.50;;
27586;SDS011;15019;49.002;8.420;2022-07-10T07:27:44;7.18;;;1.90;;
27586;SDS011;15019;49.002;8.420;2022-07-10T07:30:10;6.72;;;1.95;;
27586;SDS011;15019;49.002;8.420;2022-07-10T07:32:38;4.28;;;1.75;;
27586;SDS011;15019;49.002;8.420;2022-07-10T07:35:04;5.22;;;1.90;;
27586;SDS011;15019;49.002;8.420;2022-07-10T07:37:34;6.93;;;1.83;;
27586;SDS011;15019;49.002;8.420;2022-07-10T07:40:08;6.30;;;1.90;;
27586;SDS011;15019;49.002;8.420;2022-07-10T07:45:00;7.57;;;1.90;;
27586;SDS011;15019;49.002;8.420;2022-07-10T07:47:26;6.80;;;1.80;;
27586;SDS011;15019;49.002;8.420;2022-07-10T07:49:52;6.03;;;1.92;;
27586;SDS011;15019;49.002;8.420;2022-07-10T07:52:17;10.82;;;1.90;;
27586;SDS011;15019;49.002;8.420;2022-07-10T07:54:42;7.47;;;2.00;;
27586;SDS011;15019;49.002;8.420;2022-07-10T07:57:08;3.30;;;1.60;;
27586;SDS011;15019;49.002;8.420;2022-07-10T07:59:33;4.75;;;1.70;;
27586;SDS011;15019;49.002;8.420;2022-07-10T08:01:59;5.38;;;1.70;;
27586;SDS011;15019;49.002;8.420;2022-07-10T08:04:24;5.00;;;1.38;;
27586;SDS011;15019;49.002;8.420;2022-07-10T08:06:49;3.08;;;1.52;;
27586;SDS011;15019;49.002;8.420;2022-07-10T08:09:15;4.78;;;1.83;;
27586;SDS011;15019;49.002;8.420;2022-07-10T08:11:40;8.07;;;1.90;;
27586;SDS011;15019;49.002;8.420;2022-07-10T08:14:05;6.28;;;1.80;;
27586;SDS011;15019;49.002;8.420;2022-07-10T08:16:31;7.88;;;1.73;;
27586;SDS011;15019;49.002;8.420;2022-07-10T08:18:56;4.38;;;1.48;;
27586;SDS011;15019;49.002;8.420;2022-07-10T08:21:21;7.07;;;1.67;;
27586;SDS011;15019;49.002;8.420;2022-07-10T08:23:47;5.82;;;1.70;;
27586;SDS011;15019;49.002;8.420;2022-07-10T08:26:12;5.30;;;1.38;;
27586;SDS011;15019;49.002;8.420;2022-07-10T08:28:37;5.82;;;1.60;;
27586;SDS011;15019;49.002;8.420;2022-07-10T08:31:03;3.78;;;1.30;;
27586;SDS011;15019;49.002;8.420;2022-07-10T08:33:28;2.95;;;1.20;;
27586;SDS011;15019;49.002;8.420;2022-07-10T08:35:54;5.88;;;1.50;;
27586;SDS011;15019;49.002;8.420;2022-07-10T08:38:19;5.63;;;1.35;;
27586;SDS011;15019;49.002;8.420;2022-07-10T08:40:44;8.90;;;1.77;;
27586;SDS011;15019;49.002;8.420;2022-07-10T08:43:10;3.42;;;1.40;;
27586;SDS011;15019;49.002;8.420;2022-07-10T08:45:36;10.75;;;1.55;;
27586;SDS011;15019;49.002;8.420;2022-07-10T08:48:02;6.70;;;1.50;;
27586;SDS011;15019;49.002;8.420;2022-07-10T08:50:29;4.85;;;1.40;;
27586;SDS011;15019;49.002;8.420;2022-07-10T08:55:32;5.47;;;1.10;;
27586;SDS011;15019;49.002;8.420;2022-07-10T08:57:58;4.65;;;1.08;;
27586;SDS011;15019;49.002;8.420;2022-07-10T09:00:24;5.35;;;1.35;;
27586;SDS011;15019;49.002;8.420;2022-07-10T09:02:50;4.68;;;1.48;;
27586;SDS011;15019;49.002;8.420;2022-07-10T09:05:15;4.80;;;1.10;;
27586;SDS011;15019;49.002;8.420;2022-07-10T09:07:41;6.95;;;1.35;;
27586;SDS011;15019;49.002;8.420;2022-07-10T09:10:07;6.05;;;1.40;;
27586;SDS011;15019;49.002;8.420;2022-07-10T09:12:54;6.22;;;1.20;;
27586;SDS011;15019;49.002;8.420;2022-07-10T09:15:30;3.10;;;1.10;;
27586;SDS011;15019;49.002;8.420;2022-07-10T09:18:00;4.15;;;1.10;;
27586;SDS011;15019;49.002;8.420;2022-07-10T09:20:31;3.42;;;1.10;;
27586;SDS011;15019;49.002;8.420;2022-07-10T09:22:57;5.40;;;1.20;;
27586;SDS011;15019;49.002;8.420;2022-07-10T09:25:31;4.35;;;1.23;;
27586;SDS011;15019;49.002;8.420;2022-07-10T09:27:59;3.38;;;1.05;;
27586;SDS011;15019;49.002;8.420;2022-07-10T09:30:32;3.42;;;1.00;;
27586;SDS011;15019;49.002;8.420;2022-07-10T09:38:27;3.42;;;0.93;;
27586;SDS011;15019;49.002;8.420;2022-07-10T09:43:53;3.50;;;1.08;;
27586;SDS011;15019;49.002;8.420;2022-07-10T09:46:21;4.65;;;1.80;;
27586;SDS011;15019;49.002;8.420;2022-07-10T09:51:25;6.30;;;1.70;;
27586;SDS011;15019;49.002;8.420;2022-07-10T09:53:51;8.38;;;1.27;;
27586;SDS011;15019;49.002;8.420;2022-07-10T09:56:16;15.57;;;7.05;;
27586;SDS011;15019;49.002;8.420;2022-07-10T09:58:42;2.65;;;1.00;;
27586;SDS011;15019;49.002;8.420;2022-07-10T10:01:10;4.22;;;1.00;;
27586;SDS011;15019;49.002;8.420;2022-07-10T10:03:37;4.93;;;0.77;;
27586;SDS011;15019;49.002;8.420;2022-07-10T10:06:04;4.05;;;0.90;;
27586;SDS011;15019;49.002;8.420;2022-07-10T10:11:21;3.25;;;0.80;;
27586;SDS011;15019;49.002;8.420;2022-07-10T10:13:50;4.60;;;0.90;;
27586;SDS011;15019;49.002;8.420;2022-07-10T10:16:17;13.38;;;1.00;;
27586;SDS011;15019;49.002;8.420;2022-07-10T10:18:44;4.20;;;1.02;;
27586;SDS011;15019;49.002;8.420;2022-07-10T10:21:11;3.15;;;1.02;;
27586;SDS011;15019;49.002;8.420;2022-07-10T10:23:37;4.57;;;0.90;;
27586;SDS011;15019;49.002;8.420;2022-07-10T10:26:02;3.60;;;0.90;;
27586;SDS011;15019;49.002;8.420;2022-07-10T10:28:28;2.38;;;0.90;;
27586;SDS011;15019;49.002;8.420;2022-07-10T10:30:59;6.20;;;0.98;;
27586;SDS011;15019;49.002;8.420;2022-07-10T10:36:01;3.22;;;1.10;;
27586;SDS011;15019;49.002;8.420;2022-07-10T10:41:58;2.03;;;0.98;;
27586;SDS011;15019;49.002;8.420;2022-07-10T10:44:23;2.83;;;1.00;;
27586;SDS011;15019;49.002;8.420;2022-07-10T10:49:15;3.93;;;1.07;;
27586;SDS011;15019;49.002;8.420;2022-07-10T10:54:22;2.67;;;0.95;;
27586;SDS011;15019;49.002;8.420;2022-07-10T10:59:45;3.10;;;0.93;;
27586;SDS011;15019;49.002;8.420;2022-07-10T11:02:20;3.60;;;1.08;;
27586;SDS011;15019;49.002;8.420;2022-07-10T11:04:46;6.55;;;1.27;;
27586;SDS011;15019;49.002;8.420;2022-07-10T11:07:11;4.75;;;1.02;;
27586;SDS011;15019;49.002;8.420;2022-07-10T11:09:36;3.42;;;1.13;;
27586;SDS011;15019;49.002;8.420;2022-07-10T11:12:06;9.80;;;1.08;;
27586;SDS011;15019;49.002;8.420;2022-07-10T11:14:36;4.97;;;0.70;;
27586;SDS011;15019;49.002;8.420;2022-07-10T11:17:11;4.15;;;1.08;;
27586;SDS011;15019;49.002;8.420;2022-07-10T11:19:36;2.70;;;0.90;;
27586;SDS011;15019;49.002;8.420;2022-07-10T11:25:20;5.18;;;0.95;;
27586;SDS011;15019;49.002;8.420;2022-07-10T11:28:01;2.90;;;0.80;;
27586;SDS011;15019;49.002;8.420;2022-07-10T11:30:42;6.82;;;1.08;;
27586;SDS011;15019;49.002;8.420;2022-07-10T11:33:08;6.85;;;0.80;;
27586;SDS011;15019;49.002;8.420;2022-07-10T11:35:34;5.35;;;1.00;;
27586;SDS011;15019;49.002;8.420;2022-07-10T11:38:00;3.33;;;0.98;;
27586;SDS011;15019;49.002;8.420;2022-07-10T11:40:25;3.92;;;1.13;;
27586;SDS011;15019;49.002;8.420;2022-07-10T11:42:51;3.30;;;1.40;;
27586;SDS011;15019;49.002;8.420;2022-07-10T11:47:57;4.55;;;1.10;;
27586;SDS011;15019;49.002;8.420;2022-07-10T11:50:23;5.07;;;1.00;;
27586;SDS011;15019;49.002;8.420;2022-07-10T11:52:49;6.22;;;1.20;;
27586;SDS011;15019;49.002;8.420;2022-07-10T11:55:15;6.57;;;1.00;;
27586;SDS011;15019;49.002;8.420;2022-07-10T11:57:41;5.57;;;1.13;;
27586;SDS011;15019;49.002;8.420;2022-07-10T12:00:07;3.72;;;0.90;;
27586;SDS011;15019;49.002;8.420;2022-07-10T12:02:46;6.57;;;0.70;;
27586;SDS011;15019;49.002;8.420;2022-07-10T12:05:29;5.18;;;0.90;;
27586;SDS011;15019;49.002;8.420;2022-07-10T12:07:55;5.28;;;1.60;;
27586;SDS011;15019;49.002;8.420;2022-07-10T12:10:20;2.35;;;0.77;;
27586;SDS011;15019;49.002;8.420;2022-07-10T12:12:50;2.83;;;1.00;;
27586;SDS011;15019;49.002;8.420;2022-07-10T12:18:20;7.60;;;1.08;;
27586;SDS011;15019;49.002;8.420;2022-07-10T12:20:46;5.28;;;0.93;;
27586;SDS011;15019;49.002;8.420;2022-07-10T12:23:17;3.15;;;0.90;;
27586;SDS011;15019;49.002;8.420;2022-07-10T12:25:44;4.15;;;0.90;;
27586;SDS011;15019;49.002;8.420;2022-07-10T12:28:12;4.50;;;1.00;;
27586;SDS011;15019;49.002;8.420;2022-07-10T12:30:41;6.25;;;1.05;;
27586;SDS011;15019;49.002;8.420;2022-07-10T12:33:08;4.20;;;0.90;;
27586;SDS011;15019;49.002;8.420;2022-07-10T12:38:18;8.57;;;1.10;;
27586;SDS011;15019;49.002;8.420;2022-07-10T12:40:45;6.68;;;1.00;;
27586;SDS011;15019;49.002;8.420;2022-07-10T12:43:11;3.10;;;1.07;;
27586;SDS011;15019;49.002;8.420;2022-07-10T12:45:37;2.60;;;0.80;;
27586;SDS011;15019;49.002;8.420;2022-07-10T12:48:04;2.90;;;0.80;;
27586;SDS011;15019;49.002;8.420;2022-07-10T12:50:30;6.53;;;1.20;;
27586;SDS011;15019;49.002;8.420;2022-07-10T12:53:08;10.88;;;5.25;;
27586;SDS011;15019;49.002;8.420;2022-07-10T12:55:35;5.45;;;0.98;;
27586;SDS011;15019;49.002;8.420;2022-07-10T12:58:06;2.33;;;0.88;;
27586;SDS011;15019;49.002;8.420;2022-07-10T13:00:43;3.88;;;1.00;;
27586;SDS011;15019;49.002;8.420;2022-07-10T13:03:16;3.88;;;0.80;;
27586;SDS011;15019;49.002;8.420;2022-07-10T13:05:43;2.58;;;1.00;;
27586;SDS011;15019;49.002;8.420;2022-07-10T13:08:16;2.85;;;0.93;;
27586;SDS011;15019;49.002;8.420;2022-07-10T13:10:52;2.55;;;0.95;;
27586;SDS011;15019;49.002;8.420;2022-07-10T13:13:19;4.85;;;1.13;;
27586;SDS011;15019;49.002;8.420;2022-07-10T13:15:45;5.57;;;1.17;;
27586;SDS011;15019;49.002;8.420;2022-07-10T13:18:14;3.58;;;1.10;;
27586;SDS011;15019;49.002;8.420;2022-07-10T13:20:40;4.15;;;0.95;;
27586;SDS011;15019;49.002;8.420;2022-07-10T13:23:07;3.60;;;1.05;;
27586;SDS011;15019;49.002;8.420;2022-07-10T13:25:32;4.28;;;1.00;;
27586;SDS011;15019;49.002;8.420;2022-07-10T13:27:58;5.50;;;1.02;;
27586;SDS011;15019;49.002;8.420;2022-07-10T13:30:24;3.97;;;1.00;;
27586;SDS011;15019;49.002;8.420;2022-07-10T13:32:49;5.47;;;1.05;;
27586;SDS011;15019;49.002;8.420;2022-07-10T13:35:15;4.32;;;0.80;;
27586;SDS011;15019;49.002;8.420;2022-07-10T13:37:40;2.95;;;1.00;;
27586;SDS011;15019;49.002;8.420;2022-07-10T13:40:06;4.00;;;1.02;;
27586;SDS011;15019;49.002;8.420;2022-07-10T13:42:31;6.65;;;1.00;;
27586;SDS011;15019;49.002;8.420;2022-07-10T13:44:57;6.57;;;1.10;;
27586;SDS011;15019;49.002;8.420;2022-07-10T13:47:22;5.53;;;0.98;;
27586;SDS011;15019;49.002;8.420;2022-07-10T13:50:21;4.53;;;1.30;;
27586;SDS011;15019;49.002;8.420;2022-07-10T13:52:46;6.20;;;1.10;;
27586;SDS011;15019;49.002;8.420;2022-07-10T13:55:12;5.80;;;1.85;;
27586;SDS011;15019;49.002;8.420;2022-07-10T13:57:38;5.07;;;1.40;;
27586;SDS011;15019;49.002;8.420;2022-07-10T14:00:04;4.40;;;1.20;;
27586;SDS011;15019;49.002;8.420;2022-07-10T14:02:30;5.15;;;1.17;;
27586;SDS011;15019;49.002;8.420;2022-07-10T14:04:55;5.30;;;1.58;;
27586;SDS011;15019;49.002;8.420;2022-07-10T14:07:21;10.40;;;1.45;;
27586;SDS011;15019;49.002;8.420;2022-07-10T14:09:47;5.28;;;1.08;;
27586;SDS011;15019;49.002;8.420;2022-07-10T14:12:12;6.20;;;1.05;;
27586;SDS011;15019;49.002;8.420;2022-07-10T14:14:38;4.85;;;1.05;;
27586;SDS011;15019;49.002;8.420;2022-07-10T14:17:03;3.65;;;1.20;;
27586;SDS011;15019;49.002;8.420;2022-07-10T14:19:29;3.83;;;1.50;;
27586;SDS011;15019;49.002;8.420;2022-07-10T14:21:54;3.67;;;1.15;;
27586;SDS011;15019;49.002;8.420;2022-07-10T14:24:20;3.80;;;1.40;;
27586;SDS011;15019;49.002;8.420;2022-07-10T14:26:45;6.15;;;2.17;;
27586;SDS011;15019;49.002;8.420;2022-07-10T14:29:10;5.72;;;1.52;;
27586;SDS011;15019;49.002;8.420;2022-07-10T14:31:36;4.15;;;1.40;;
27586;SDS011;15019;49.002;8.420;2022-07-10T14:34:04;6.53;;;2.58;;
27586;SDS011;15019;49.002;8.420;2022-07-10T14:36:30;7.10;;;1.80;;
27586;SDS011;15019;49.002;8.420;2022-07-10T14:38:59;5.80;;;1.70;;
27586;SDS011;15019;49.002;8.420;2022-07-10T14:41:26;7.85;;;1.50;;
27586;SDS011;15019;49.002;8.420;2022-07-10T14:43:57;7.50;;;1.25;;
27586;SDS011;15019;49.002;8.420;2022-07-10T14:46:22;4.72;;;1.40;;
27586;SDS011;15019;49.002;8.420;2022-07-10T14:48:48;7.93;;;3.10;;
27586;SDS011;15019;49.002;8.420;2022-07-10T14:51:25;10.10;;;1.40;;
27586;SDS011;15019;49.002;8.420;2022-07-10T14:53:56;11.00;;;1.50;;
27586;SDS011;15019;49.002;8.420;2022-07-10T14:56:22;9.18;;;1.23;;
27586;SDS011;15019;49.002;8.420;2022-07-10T14:58:57;8.10;;;1.70;;
27586;SDS011;15019;49.002;8.420;2022-07-10T15:01:36;6.80;;;1.48;;
27586;SDS011;15019;49.002;8.420;2022-07-10T15:04:06;5.78;;;1.65;;
27586;SDS011;15019;49.002;8.420;2022-07-10T15:06:31;6.38;;;1.80;;
27586;SDS011;15019;49.002;8.420;2022-07-10T15:08:57;20.10;;;4.60;;
27586;SDS011;15019;49.002;8.420;2022-07-10T15:11:22;6.75;;;1.33;;
27586;SDS011;15019;49.002;8.420;2022-07-10T15:13:48;13.93;;;1.45;;
27586;SDS011;15019;49.002;8.420;2022-07-10T15:16:14;7.30;;;1.58;;
27586;SDS011;15019;49.002;8.420;2022-07-10T15:18:40;4.18;;;1.30;;
27586;SDS011;15019;49.002;8.420;2022-07-10T15:21:05;5.15;;;1.50;;
27586;SDS011;15019;49.002;8.420;2022-07-10T15:23:30;3.72;;;1.23;;
27586;SDS011;15019;49.002;8.420;2022-07-10T15:25:56;5.45;;;1.50;;
27586;SDS011;15019;49.002;8.420;2022-07-10T15:28:21;4.68;;;1.50;;
27586;SDS011;15019;49.002;8.420;2022-07-10T15:30:46;3.72;;;1.20;;